Time;durP1;ratioP1;P1;durP2;ratioP2;P2;SDS_P1;SDS_P2;PMS_P1;PMS_P2;Temp;Humidity;BMP_temperature;BMP_pressure;BME280_temperature;BME280_humidity;BME280_pressure;Samples;Min_cycle;Max_cycle;Signal;HPM_P1;HPM_P2
2021/12/05 00:19:37;;;;;;;22.88;3.83;;;;;;;4.35;80.16;99627.97;5069206;28;20048;-65
2021/12/05 00:22:14;;;;;;;18.15;3.50;;;;;;;4.34;80.55;99628.91;5067681;28;20498;-65
2021/12/05 00:24:46;;;;;;;14.70;3.67;;;;;;;4.33;80.88;99622.00;5068299;28;20132;-65
2021/12/05 00:27:17;;;;;;;15.63;3.58;;;;;;;4.45;80.41;99625.28;5051169;28;20052;-65
2021/12/05 00:50:00;;;;;;;18.15;3.50;;;;;;;4.48;79.44;99615.34;5089981;28;20040;-65
2021/12/05 01:09:02;;;;;;;17.48;3.88;;;;;;;4.20;81.31;99620.50;5090063;28;20044;-65
2021/12/05 01:14:49;;;;;;;18.83;4.03;;;;;;;4.17;80.76;99625.22;5088702;28;20504;-63
2021/12/05 01:17:07;;;;;;;17.85;3.70;;;;;;;4.17;80.16;99638.34;5088726;28;20040;-64
2021/12/05 01:19:35;;;;;;;18.75;3.90;;;;;;;4.15;80.16;99635.03;5088461;28;20040;-64
2021/12/05 01:22:07;;;;;;;21.58;4.18;;;;;;;4.25;80.94;99635.81;5089788;28;20071;-63
2021/12/05 01:24:49;;;;;;;19.80;4.15;;;;;;;4.15;80.86;99641.09;5089747;28;20123;-64
2021/12/05 01:30:04;;;;;;;19.77;5.43;;;;;;;4.20;80.76;99649.38;5110311;27;20384;-63
2021/12/05 01:32:48;;;;;;;15.18;3.72;;;;;;;4.13;80.79;99653.53;5077531;28;20066;-63
2021/12/05 01:35:55;;;;;;;23.35;3.80;;;;;;;4.27;80.63;99657.50;5108178;28;20044;-64
2021/12/05 01:38:16;;;;;;;20.25;3.67;;;;;;;4.28;79.83;99661.00;5092284;28;20059;-63
2021/12/05 02:34:15;;;;;;;19.00;3.90;;;;;;;4.09;80.34;99670.50;5072175;28;20113;-65
2021/12/05 02:36:57;;;;;;;16.83;3.70;;;;;;;4.08;80.19;99668.06;5074514;28;20102;-65
2021/12/05 02:42:10;;;;;;;15.50;3.90;;;;;;;4.11;80.82;99670.38;5088598;27;20731;-66
2021/12/05 02:44:38;;;;;;;15.55;4.10;;;;;;;4.11;79.47;99662.50;5089035;28;20648;-65
2021/12/05 02:47:13;;;;;;;16.95;3.50;;;;;;;4.04;80.00;99660.44;5090020;28;20051;-64
2021/12/05 02:49:45;;;;;;;18.38;3.17;;;;;;;4.17;79.73;99656.72;5084555;28;20047;-65
2021/12/05 02:52:21;;;;;;;22.50;3.55;;;;;;;4.04;79.88;99659.63;5090067;28;20501;-65
2021/12/05 02:54:52;;;;;;;13.68;3.28;;;;;;;4.09;79.98;99648.69;5090039;28;20040;-65
2021/12/05 02:57:44;;;;;;;14.52;3.10;;;;;;;4.09;80.48;99643.44;5088776;28;20048;-66
2021/12/05 03:00:15;;;;;;;16.80;3.22;;;;;;;4.08;80.33;99652.31;5088722;28;20374;-64
2021/12/05 03:02:45;;;;;;;18.48;3.78;;;;;;;4.09;79.72;99643.44;5089970;28;20511;-64
2021/12/05 03:05:17;;;;;;;15.48;2.90;;;;;;;4.07;79.47;99653.25;5088805;28;20076;-64
2021/12/05 03:07:47;;;;;;;17.25;2.80;;;;;;;3.99;80.57;99649.53;5089443;28;20044;-64
2021/12/05 03:10:20;;;;;;;15.77;3.20;;;;;;;3.93;80.49;99646.63;5069768;28;20095;-64
2021/12/05 03:12:48;;;;;;;15.27;2.88;;;;;;;3.99;80.89;99648.69;5069563;28;20501;-64
2021/12/05 03:15:17;;;;;;;17.52;2.78;;;;;;;4.01;80.67;99644.97;5106365;28;20050;-64
2021/12/05 03:17:47;;;;;;;15.85;3.05;;;;;;;3.99;80.59;99643.47;5089750;28;20043;-64
2021/12/05 03:20:17;;;;;;;12.23;3.20;;;;;;;4.04;80.96;99638.63;5089207;28;20489;-64
2021/12/05 03:22:45;;;;;;;12.02;3.05;;;;;;;3.92;80.43;99643.16;5089511;28;20044;-64
2021/12/05 03:25:13;;;;;;;15.85;3.17;;;;;;;3.90;80.25;99639.84;5089399;28;20041;-64
2021/12/05 03:27:41;;;;;;;20.08;3.33;;;;;;;4.03;79.92;99631.69;5088152;28;20450;-64
2021/12/05 03:30:18;;;;;;;15.50;3.00;;;;;;;4.05;80.24;99640.25;5089365;28;20044;-63
2021/12/05 03:32:50;;;;;;;16.38;3.05;;;;;;;4.03;79.73;99636.94;5089369;28;20489;-64
2021/12/05 03:35:21;;;;;;;20.85;3.45;;;;;;;3.92;80.26;99639.72;5088062;28;20127;-64
2021/12/05 03:37:49;;;;;;;17.02;3.13;;;;;;;3.90;80.25;99634.59;5089289;28;20048;-64
2021/12/05 03:40:21;;;;;;;12.88;2.85;;;;;;;3.92;79.86;99634.47;5087234;28;20074;-64
2021/12/05 03:42:51;;;;;;;15.02;3.08;;;;;;;3.93;80.51;99634.34;5087936;28;20422;-64
2021/12/05 03:45:25;;;;;;;24.15;2.67;;;;;;;3.94;80.22;99624.66;5088733;28;20047;-64
2021/12/05 03:47:53;;;;;;;20.70;2.90;;;;;;;3.83;81.33;99626.44;5071243;28;20040;-64
2021/12/05 03:50:24;;;;;;;19.77;2.83;;;;;;;3.81;81.38;99627.56;5055177;28;20036;-64
2021/12/05 03:52:52;;;;;;;16.52;2.80;;;;;;;3.71;81.67;99631.97;5079102;28;20093;-64
2021/12/05 03:55:20;;;;;;;23.67;2.80;;;;;;;3.80;80.84;99631.16;5075201;28;20036;-64
2021/12/05 03:57:47;;;;;;;17.17;2.80;;;;;;;3.71;81.31;99624.09;5075929;28;20382;-64
2021/12/05 04:00:20;;;;;;;18.13;3.00;;;;;;;3.80;80.41;99629.38;5075527;28;20047;-64
2021/12/05 04:02:52;;;;;;;22.08;3.33;;;;;;;3.67;80.55;99627.97;5075585;28;20048;-64
2021/12/05 04:05:24;;;;;;;16.20;2.97;;;;;;;3.79;80.22;99626.88;5073214;28;20129;-64
2021/12/05 04:07:53;;;;;;;17.75;2.92;;;;;;;3.76;80.99;99627.97;5075038;28;20051;-64
2021/12/05 04:10:21;;;;;;;25.23;3.30;;;;;;;3.92;80.44;99627.41;5074921;28;20515;-64
2021/12/05 04:12:50;;;;;;;22.23;3.17;;;;;;;3.87;80.84;99620.94;5074264;28;20071;-64
2021/12/05 04:15:19;;;;;;;18.90;3.10;;;;;;;3.79;80.45;99622.44;5057601;28;20050;-64
2021/12/05 04:17:50;;;;;;;17.77;3.20;;;;;;;3.68;81.09;99627.03;5072423;28;20127;-64
2021/12/05 04:20:18;;;;;;;16.45;3.03;;;;;;;3.64;80.70;99622.03;5091035;28;20056;-64
2021/12/05 04:22:47;;;;;;;13.57;3.33;;;;;;;3.59;80.72;99618.16;5094799;28;20052;-64
2021/12/05 04:25:16;;;;;;;15.40;3.25;;;;;;;3.58;81.05;99621.75;5093416;28;20048;-64
2021/12/05 04:27:46;;;;;;;17.65;2.95;;;;;;;3.56;81.14;99626.28;5093945;28;20044;-64
2021/12/05 04:30:17;;;;;;;13.50;2.80;;;;;;;3.57;80.79;99623.53;5095086;28;20048;-64
2021/12/05 04:32:44;;;;;;;14.88;2.55;;;;;;;3.39;81.08;99630.41;5095098;28;20416;-64
2021/12/05 04:35:12;;;;;;;16.58;3.20;;;;;;;3.45;81.48;99629.88;5087031;28;20048;-64
2021/12/05 04:37:39;;;;;;;18.60;3.53;;;;;;;3.48;80.65;99631.41;5057258;28;20132;-64
2021/12/05 04:40:09;;;;;;;13.25;3.03;;;;;;;3.53;80.73;99631.81;5073381;28;20045;-64
2021/12/05 04:42:36;;;;;;;20.08;3.42;;;;;;;3.52;81.87;99635.41;5073523;28;20044;-64
2021/12/05 04:45:07;;;;;;;16.15;2.75;;;;;;;3.60;80.73;99633.78;5074350;28;20048;-64
2021/12/05 04:47:34;;;;;;;19.15;3.10;;;;;;;3.61;81.10;99634.59;5074391;28;20051;-64
2021/12/05 04:50:04;;;;;;;13.27;2.95;;;;;;;3.57;81.08;99626.16;5073018;28;20076;-64
2021/12/05 04:52:31;;;;;;;17.13;3.25;;;;;;;3.62;80.73;99623.13;5074244;28;20086;-64
2021/12/05 04:54:58;;;;;;;15.77;3.55;;;;;;;3.49;81.64;99615.50;5072994;28;20059;-64
2021/12/05 04:57:25;;;;;;;19.63;3.40;;;;;;;3.55;80.22;99625.47;5074336;28;20520;-64
2021/12/05 04:59:53;;;;;;;12.43;2.72;;;;;;;3.45;80.79;99622.81;5073388;28;20135;-64
2021/12/05 05:02:20;;;;;;;15.65;3.20;;;;;;;3.34;81.02;99616.88;5073884;28;20036;-64
2021/12/05 05:04:48;;;;;;;11.25;3.20;;;;;;;3.37;80.66;99611.38;5072910;28;20481;-64
2021/12/05 05:07:23;;;;;;;16.88;3.67;;;;;;;3.26;80.20;99610.53;5072060;28;20049;-64
2021/12/05 05:09:53;;;;;;;19.20;3.97;;;;;;;3.33;81.24;99613.44;5074453;28;20094;-64
2021/12/05 05:12:20;;;;;;;15.02;3.67;;;;;;;3.38;80.20;99619.09;5073098;28;20473;-64
2021/12/05 05:14:47;;;;;;;17.50;4.20;;;;;;;3.34;80.45;99609.84;5072337;28;20381;-64
2021/12/05 05:17:14;;;;;;;17.30;3.92;;;;;;;3.37;80.43;99619.25;5055913;28;20046;-64
2021/12/05 05:19:48;;;;;;;16.20;3.70;;;;;;;3.35;80.17;99614.13;5074114;28;20047;-64
2021/12/05 05:22:46;;;;;;;17.45;3.20;;;;;;;3.36;79.15;99617.56;5073608;28;20512;-64
2021/12/05 05:39:19;;;;;;;19.70;4.20;;;;;;;3.23;80.75;99644.84;5073023;28;20073;-64
2021/12/05 05:44:32;;;;;;;16.65;3.20;;;;;;;3.19;80.65;99651.34;5072007;28;20097;-64
2021/12/05 05:47:07;;;;;;;11.98;2.90;;;;;;;3.19;80.90;99659.19;5073320;28;20040;-64
2021/12/05 05:49:50;;;;;;;17.10;3.30;;;;;;;3.27;80.78;99655.91;5072038;28;20405;-65
2021/12/05 05:52:18;;;;;;;12.63;2.85;;;;;;;3.34;80.75;99651.78;5072458;28;20048;-66
2021/12/05 05:54:48;;;;;;;16.50;3.15;;;;;;;3.40;80.87;99659.13;5072004;28;20056;-65
2021/12/05 06:00:13;;;;;;;13.38;2.47;;;;;;;3.49;79.08;99670.59;5073318;28;20064;-64
2021/12/05 06:05:33;;;;;;;14.80;2.70;;;;;;;3.51;79.47;99667.81;5072774;28;20123;-64
2021/12/05 06:08:00;;;;;;;14.18;2.70;;;;;;;3.53;79.36;99668.50;5071553;28;20401;-65
2021/12/05 06:10:29;;;;;;;14.90;2.50;;;;;;;3.53;79.64;99669.38;5055930;28;20051;-64
2021/12/05 06:12:57;;;;;;;15.75;2.60;;;;;;;3.54;79.88;99657.91;5072942;28;20150;-66
2021/12/05 06:15:26;;;;;;;10.07;2.35;;;;;;;3.63;79.84;99661.50;5071917;28;20043;-64
2021/12/05 06:17:54;;;;;;;16.08;2.60;;;;;;;3.68;79.28;99664.56;5071744;28;20052;-65
2021/12/05 06:20:26;;;;;;;13.98;2.45;;;;;;;3.58;79.67;99661.91;5081136;28;20040;-64
2021/12/05 06:22:57;;;;;;;12.35;2.60;;;;;;;3.61;78.89;99669.50;5092929;28;20047;-65
2021/12/05 06:25:27;;;;;;;8.07;2.95;;;;;;;3.63;78.57;99672.81;5083389;28;20048;-65
2021/12/05 06:28:01;;;;;;;16.98;3.38;;;;;;;3.70;79.07;99672.28;5071285;28;20050;-65
2021/12/05 06:39:06;;;;;;;11.68;2.70;;;;;;;3.67;79.29;99677.81;5072545;28;20048;-65
2021/12/05 06:47:09;;;;;;;14.70;2.60;;;;;;;3.81;77.80;99691.34;5072305;28;20405;-65
2021/12/05 06:49:37;;;;;;;9.45;2.63;;;;;;;3.76;78.70;99696.16;5071399;28;20358;-65
2021/12/05 06:52:06;;;;;;;18.48;2.67;;;;;;;3.75;78.93;99702.41;5072376;28;20037;-65
2021/12/05 06:54:36;;;;;;;12.85;2.50;;;;;;;3.74;79.14;99698.09;5054803;28;20074;-65
2021/12/05 06:57:04;;;;;;;13.32;2.80;;;;;;;3.82;78.34;99697.41;5071085;28;20044;-64
2021/12/05 06:59:33;;;;;;;12.68;2.67;;;;;;;3.68;78.35;99705.72;5072194;28;20044;-66
2021/12/05 07:02:00;;;;;;;11.45;2.58;;;;;;;3.86;78.10;99706.69;5072320;28;20044;-65
2021/12/05 07:07:21;;;;;;;13.45;2.80;;;;;;;3.91;nan;99715.00;5055537;28;20075;-64
2021/12/05 07:09:48;;;;;;;13.30;3.05;;;;;;;3.83;78.14;99707.78;5071270;28;20041;-65
2021/12/05 07:12:47;;;;;;;14.05;2.83;;;;;;;3.79;78.82;99716.91;5072482;28;20504;-64
2021/12/05 07:15:10;;;;;;;12.10;2.92;;;;;;;3.89;78.26;99711.66;5071778;28;20051;-65
2021/12/05 07:20:32;;;;;;;10.55;2.42;;;;;;;3.98;76.97;99704.75;5090207;27;20049;-64
2021/12/05 07:26:04;;;;;;;12.02;3.30;;;;;;;3.87;77.86;99710.16;5090161;28;20095;-65
2021/12/05 07:40:42;;;;;;;11.10;2.75;;;;;;;4.02;78.29;99724.50;5089913;28;20441;-64
2021/12/05 07:42:26;;;;;;;16.85;4.95;;;;;;;3.96;78.75;99722.44;5088820;28;20048;-65
2021/12/05 07:44:55;;;;;;;15.93;2.92;;;;;;;4.05;78.65;99721.63;5089681;28;20051;-65
2021/12/05 07:47:27;;;;;;;10.57;2.50;;;;;;;4.04;78.04;99733.09;5090129;28;20493;-65
2021/12/05 07:49:56;;;;;;;;;;;;;;;4.13;78.08;99724.41;5090190;28;20098;-64
2021/12/05 07:52:26;;;;;;;13.05;2.75;;;;;;;4.12;77.45;99727.97;5088750;28;19927;-65
2021/12/05 07:55:02;;;;;;;13.77;2.92;;;;;;;4.12;76.95;99724.53;5089515;28;20128;-65
2021/12/05 07:57:39;;;;;;;10.68;2.75;;;;;;;4.16;78.10;99734.63;5089270;28;20064;-65
2021/12/05 08:00:20;;;;;;;11.18;3.35;;;;;;;4.04;77.59;99735.72;5089626;28;20046;-65
2021/12/05 08:16:47;;;;;;;13.80;3.05;;;;;;;4.16;79.04;99760.88;5088969;28;20070;-65
2021/12/05 08:19:14;;;;;;;13.45;3.15;;;;;;;4.33;77.79;99758.53;5088842;28;20056;-65
2021/12/05 08:21:41;;;;;;;15.90;3.00;;;;;;;4.25;77.99;99766.28;5102307;28;20435;-65
2021/12/05 08:24:09;;;;;;;14.15;3.22;;;;;;;4.35;77.41;99767.94;5108906;28;20063;-65
2021/12/05 08:26:36;;;;;;;15.38;3.15;;;;;;;4.28;78.86;99772.09;5053736;28;20044;-65
2021/12/05 08:29:11;;;;;;;12.02;3.25;;;;;;;4.34;79.14;99778.56;5088917;28;20040;-64
2021/12/05 08:34:39;;;;;;;15.98;3.75;;;;;;;4.29;79.75;99772.91;5088163;27;20385;-65
2021/12/05 08:45:50;;;;;;;10.55;3.10;;;;;;;4.24;79.56;99775.97;5086235;28;20072;-66
2021/12/05 09:22:10;;;;;;;9.90;3.58;;;;;;;4.38;80.79;99817.56;5088331;28;20064;-64
2021/12/05 09:38:56;;;;;;;13.68;6.05;;;;;;;4.48;80.53;99846.47;5089696;28;20048;-65
2021/12/05 10:02:08;;;;;;;14.48;4.05;;;;;;;4.68;81.75;99862.25;5088782;28;20040;-64
2021/12/05 10:18:09;;;;;;;7.45;2.90;;;;;;;4.87;81.11;99872.75;5089074;28;20465;-64
2021/12/05 10:26:04;;;;;;;6.68;2.47;;;;;;;4.90;79.78;99874.28;5089232;28;20049;-65
2021/12/05 10:37:47;;;;;;;10.90;2.97;;;;;;;5.14;79.41;99879.91;5090112;28;20048;-65
2021/12/05 10:40:21;;;;;;;11.55;3.00;;;;;;;5.22;77.53;99889.75;5090034;28;20048;-66
2021/12/05 10:42:52;;;;;;;9.98;3.00;;;;;;;5.32;nan;99881.84;5088840;28;20040;-65
2021/12/05 10:47:58;;;;;;;8.68;2.97;;;;;;;5.17;79.37;99881.47;5089868;27;20385;-64
2021/12/05 10:50:43;;;;;;;8.75;3.15;;;;;;;5.19;78.86;99885.59;5072226;28;20059;-64
2021/12/05 10:56:29;;;;;;;8.77;3.22;;;;;;;5.50;76.77;99884.59;5089682;27;20405;-66
2021/12/05 11:01:57;;;;;;;10.55;2.90;;;;;;;5.41;78.03;99885.44;5090327;27;20385;-65
2021/12/05 11:04:28;;;;;;;8.23;3.00;;;;;;;5.48;78.10;99883.91;5090184;28;20120;-66
2021/12/05 11:07:21;;;;;;;9.68;2.78;;;;;;;5.46;78.50;99888.47;5086824;28;20045;-66
2021/12/05 11:09:57;;;;;;;12.63;3.30;;;;;;;5.36;77.00;99899.00;5088867;28;20036;-66
2021/12/05 11:12:31;;;;;;;8.57;3.17;;;;;;;5.55;78.88;99893.72;5089055;28;20059;-66
2021/12/05 11:15:04;;;;;;;15.00;6.32;;;;;;;5.65;77.87;99896.31;5088792;28;20098;-66
2021/12/05 11:17:33;;;;;;;10.63;3.95;;;;;;;5.75;79.08;99898.94;5088448;28;20052;-66
2021/12/05 11:20:18;;;;;;;9.27;3.38;;;;;;;5.79;78.54;99889.75;5089768;28;20040;-66
2021/12/05 11:22:48;;;;;;;11.30;3.40;;;;;;;5.76;78.89;99890.03;5088672;28;20119;-66
2021/12/05 11:25:19;;;;;;;9.25;3.00;;;;;;;5.90;79.11;99889.56;5088699;28;20106;-67
2021/12/05 11:27:50;;;;;;;11.73;3.92;;;;;;;5.91;79.21;99893.88;5088284;28;20071;-65
2021/12/05 11:30:21;;;;;;;10.70;3.20;;;;;;;6.06;78.31;99890.81;5089625;28;20477;-65
2021/12/05 11:32:54;;;;;;;9.77;3.30;;;;;;;6.14;77.64;99891.72;5089614;28;20044;-65
2021/12/05 11:41:07;;;;;;;9.25;3.15;;;;;;;6.31;75.82;99895.41;5110736;27;20355;-65
2021/12/05 11:43:55;;;;;;;8.63;3.22;;;;;;;6.30;73.24;99888.44;5110589;28;20063;-65
2021/12/05 11:46:34;;;;;;;9.98;3.25;;;;;;;6.47;72.29;99888.63;5110410;28;20481;-66
2021/12/05 11:49:06;;;;;;;9.90;2.85;;;;;;;6.62;72.34;99889.81;5109135;28;20516;-66
2021/12/05 11:51:35;;;;;;;;;;;;;;;6.77;73.43;99903.28;5109564;28;20047;-65
2021/12/05 11:56:52;;;;;;;9.52;2.83;;;;;;;6.82;69.97;99903.66;5075349;28;20412;-66
2021/12/05 11:59:43;;;;;;;8.63;2.35;;;;;;;7.06;70.78;99910.97;5088837;28;20470;-66
2021/12/05 12:05:25;;;;;;;12.55;2.45;;;;;;;7.22;70.11;99906.78;5110437;27;20124;-67
2021/12/05 12:08:02;;;;;;;7.68;2.05;;;;;;;7.08;68.46;99914.28;5090265;28;20412;-66
2021/12/05 12:10:50;;;;;;;9.88;2.35;;;;;;;7.18;68.46;99906.28;5087033;28;20036;-66
2021/12/05 12:13:23;;;;;;;6.95;2.20;;;;;;;7.05;69.04;99906.66;5092570;28;20032;-67
2021/12/05 12:15:58;;;;;;;8.55;2.30;;;;;;;7.18;67.81;99908.09;5089128;28;20071;-67
2021/12/05 12:18:31;;;;;;;7.43;2.25;;;;;;;7.26;69.93;99913.44;5089668;28;20040;-67
2021/12/05 12:21:03;;;;;;;6.82;2.40;;;;;;;7.07;68.51;99903.88;5090094;28;20045;-67
2021/12/05 12:23:30;;;;;;;8.85;2.90;;;;;;;6.99;69.09;99906.47;5087371;28;20040;-67
2021/12/05 12:26:01;;;;;;;9.50;2.20;;;;;;;6.95;70.34;99910.34;5089683;28;20127;-66
2021/12/05 12:28:29;;;;;;;8.53;2.40;;;;;;;6.78;71.20;99904.94;5088983;28;20052;-68
2021/12/05 12:31:02;;;;;;;8.10;2.45;;;;;;;6.80;71.50;99908.25;5071570;28;20052;-67
2021/12/05 12:33:33;;;;;;;6.35;2.47;;;;;;;6.78;71.85;99918.09;5089722;28;20408;-66
2021/12/05 12:36:01;;;;;;;8.65;2.55;;;;;;;6.80;73.09;99908.25;5089670;28;20036;-66
2021/12/05 12:41:23;;;;;;;8.75;2.90;;;;;;;6.71;71.96;99917.91;5125717;27;20422;-67
2021/12/05 12:43:59;;;;;;;8.30;2.58;;;;;;;6.63;72.34;99924.88;5099625;27;20036;-67
2021/12/05 12:49:24;;;;;;;9.20;2.70;;;;;;;6.66;72.63;99928.03;5085220;28;20175;-66
2021/12/05 12:52:06;;;;;;;9.88;2.67;;;;;;;6.60;72.93;99928.63;5048722;28;20049;-65
2021/12/05 12:54:44;;;;;;;9.95;2.80;;;;;;;6.62;72.84;99934.59;5055480;28;20032;-65
2021/12/05 12:57:32;;;;;;;8.27;2.60;;;;;;;6.61;72.13;99932.94;5040862;28;20091;-67
2021/12/05 13:00:09;;;;;;;7.97;2.50;;;;;;;6.59;72.43;99936.69;5052135;28;20502;-66
2021/12/05 13:03:02;;;;;;;10.18;2.85;;;;;;;6.51;72.56;99940.06;5068760;28;20119;-67
2021/12/05 13:11:26;;;;;;;6.93;2.50;;;;;;;6.33;72.84;99940.84;5088980;28;20040;-67
2021/12/05 13:14:04;;;;;;;7.85;2.58;;;;;;;6.32;72.42;99954.16;5089887;28;20489;-67
2021/12/05 13:16:35;;;;;;;7.25;2.72;;;;;;;6.36;72.15;99947.63;5090264;28;20071;-66
2021/12/05 13:19:22;;;;;;;7.60;2.83;;;;;;;6.21;73.17;99949.91;5072305;28;20045;-66
2021/12/05 13:21:53;;;;;;;6.32;2.40;;;;;;;6.22;72.36;99956.84;5076236;28;20071;-66
2021/12/05 13:24:32;;;;;;;9.65;2.47;;;;;;;6.23;73.92;99957.66;5071844;28;20040;-66
2021/12/05 13:27:05;;;;;;;10.43;2.80;;;;;;;6.13;73.18;99961.19;5089345;28;20047;-66
2021/12/05 13:29:36;;;;;;;11.82;3.17;;;;;;;6.10;73.73;99955.38;5051092;28;20151;-67
2021/12/05 13:34:48;;;;;;;7.60;2.78;;;;;;;5.98;76.00;99969.69;5088112;28;20438;-67
2021/12/05 13:37:20;;;;;;;8.25;2.53;;;;;;;6.03;75.94;99970.09;5074441;28;20690;-67
2021/12/05 13:42:41;;;;;;;7.15;2.85;;;;;;;6.02;76.10;99971.88;5086206;27;20121;-64
2021/12/05 13:45:19;;;;;;;10.88;3.10;;;;;;;5.99;76.18;99980.06;5065442;28;20489;-65
2021/12/05 13:50:37;;;;;;;8.35;3.10;;;;;;;5.91;75.34;99978.13;5131154;27;20374;-67
2021/12/05 13:56:01;;;;;;;8.57;3.10;;;;;;;5.93;76.42;99976.19;5084059;28;20578;-66
2021/12/05 13:58:36;;;;;;;8.18;2.90;;;;;;;5.93;75.62;99977.94;5049703;28;20056;-66
2021/12/05 14:01:22;;;;;;;9.80;3.15;;;;;;;5.93;75.21;99988.47;5048612;28;20043;-66
2021/12/05 14:04:10;;;;;;;10.95;3.05;;;;;;;6.03;75.02;99996.41;5065164;28;20451;-66
2021/12/05 14:07:09;;;;;;;8.45;3.00;;;;;;;6.08;75.54;99997.63;5067017;28;20048;-67
2021/12/05 14:09:39;;;;;;;7.63;2.90;;;;;;;6.05;75.40;99999.72;5049324;28;20041;-67
2021/12/05 14:12:29;;;;;;;9.60;3.38;;;;;;;6.19;75.36;100001.91;5033960;28;20041;-66
2021/12/05 14:15:06;;;;;;;8.55;2.75;;;;;;;6.20;74.90;100008.81;5037984;28;20107;-67
2021/12/05 14:17:35;;;;;;;9.20;3.05;;;;;;;6.24;74.11;100006.72;5068707;28;20058;-66
2021/12/05 14:20:08;;;;;;;11.27;2.92;;;;;;;6.27;75.18;100014.34;5050638;28;20210;-66
2021/12/05 14:22:36;;;;;;;8.45;3.00;;;;;;;6.23;75.76;100020.88;5063840;28;20073;-65
2021/12/05 14:25:10;;;;;;;8.82;3.30;;;;;;;6.19;75.33;100022.97;5048652;28;20037;-65
2021/12/05 14:27:47;;;;;;;10.18;3.60;;;;;;;6.22;74.71;100037.66;5048557;28;20025;-65
2021/12/05 14:30:19;;;;;;;12.57;3.63;;;;;;;6.20;73.95;100036.97;5052685;28;20053;-65
2021/12/05 14:32:49;;;;;;;11.30;3.40;;;;;;;6.18;73.50;100038.91;5067349;28;20095;-66
2021/12/05 14:35:20;;;;;;;7.68;2.97;;;;;;;6.14;73.58;100046.28;5030679;28;20520;-65
2021/12/05 14:37:50;;;;;;;11.23;3.25;;;;;;;6.20;74.33;100050.97;5034578;28;20055;-66
2021/12/05 14:40:20;;;;;;;9.48;3.22;;;;;;;6.18;74.13;100052.91;5066502;28;20037;-65
2021/12/05 14:42:51;;;;;;;12.25;3.47;;;;;;;6.20;74.81;100052.78;5051058;28;20095;-65
2021/12/05 14:45:22;;;;;;;8.00;2.90;;;;;;;6.18;75.00;100058.19;5067807;28;20044;-65
2021/12/05 14:47:52;;;;;;;9.53;3.13;;;;;;;6.20;74.20;100060.66;5033901;28;20083;-65
2021/12/05 14:50:23;;;;;;;7.70;2.65;;;;;;;6.24;73.79;100062.03;5034983;28;20302;-66
2021/12/05 14:52:55;;;;;;;10.23;3.00;;;;;;;6.22;74.22;100059.56;5050335;28;20468;-66
2021/12/05 14:55:25;;;;;;;10.05;2.80;;;;;;;6.21;73.07;100071.06;5067019;28;20094;-66
2021/12/05 14:57:54;;;;;;;9.20;3.00;;;;;;;6.18;73.40;100066.06;5047823;28;20037;-66
2021/12/05 15:00:30;;;;;;;8.68;3.65;;;;;;;6.15;73.29;100076.91;5049747;28;20047;-65
2021/12/05 15:03:13;;;;;;;9.20;3.05;;;;;;;6.09;72.88;100073.03;5068781;28;20132;-66
2021/12/05 15:05:46;;;;;;;11.40;3.10;;;;;;;6.03;73.33;100081.50;5027390;28;20037;-66
2021/12/05 15:08:25;;;;;;;8.57;2.97;;;;;;;6.11;73.72;100083.41;5034390;28;20049;-66
2021/12/05 15:10:58;;;;;;;11.52;3.30;;;;;;;6.13;74.75;100090.22;5032943;28;20036;-65
2021/12/05 15:13:27;;;;;;;11.88;2.85;;;;;;;6.15;73.32;100085.63;5038397;28;20567;-65
2021/12/05 15:15:56;;;;;;;9.98;3.08;;;;;;;6.10;73.36;100093.13;5020871;28;20403;-65
2021/12/05 15:18:29;;;;;;;11.25;3.92;;;;;;;6.15;73.20;100092.72;5037349;28;20124;-66
2021/12/05 15:20:57;;;;;;;10.05;3.33;;;;;;;6.17;74.40;100092.53;5054994;28;20086;-65
2021/12/05 15:23:34;;;;;;;10.25;3.47;;;;;;;6.16;74.88;100097.00;5037062;28;20040;-66
2021/12/05 15:26:03;;;;;;;11.10;3.65;;;;;;;6.06;73.30;100102.28;5054859;28;20037;-65
2021/12/05 15:28:32;;;;;;;9.70;3.60;;;;;;;6.08;73.79;100104.78;5054979;28;20422;-66
2021/12/05 15:31:00;;;;;;;10.65;3.40;;;;;;;6.14;74.70;100110.28;5037652;28;20049;-65
2021/12/05 15:33:28;;;;;;;9.65;3.78;;;;;;;6.08;75.03;100121.41;5054901;28;20045;-66
2021/12/05 15:35:56;;;;;;;9.80;3.33;;;;;;;6.14;72.94;100118.19;5037270;28;20041;-65
2021/12/05 15:38:25;;;;;;;11.45;3.30;;;;;;;6.29;72.50;100125.66;5035690;28;20045;-66
2021/12/05 15:40:57;;;;;;;8.60;3.20;;;;;;;6.28;71.96;100127.47;5054474;28;20053;-65
2021/12/05 15:43:26;;;;;;;10.50;3.50;;;;;;;6.10;72.75;100135.25;5054975;28;20064;-65
2021/12/05 15:45:55;;;;;;;10.73;3.30;;;;;;;6.09;73.91;100143.28;5054580;28;20037;-65
2021/12/05 15:48:25;;;;;;;9.52;3.60;;;;;;;6.04;74.80;100143.72;5036823;28;20045;-65
2021/12/05 15:50:54;;;;;;;8.05;3.50;;;;;;;5.94;75.31;100148.13;5037003;28;20558;-65
2021/12/05 15:53:23;;;;;;;12.13;3.63;;;;;;;5.69;76.29;100160.84;5036542;28;20055;-65
2021/12/05 15:55:58;;;;;;;9.75;3.13;;;;;;;5.65;77.50;100161.25;5019998;28;20045;-65
2021/12/05 15:58:31;;;;;;;10.38;3.85;;;;;;;5.60;76.98;100160.84;5054733;28;20460;-65
2021/12/05 16:01:18;;;;;;;10.48;3.80;;;;;;;5.51;77.40;100155.44;5054021;28;20056;-66
2021/12/05 16:03:51;;;;;;;10.77;4.22;;;;;;;5.51;77.89;100175.63;5054300;28;20098;-65
2021/12/05 16:06:29;;;;;;;11.40;3.50;;;;;;;5.39;78.35;100175.75;5035225;28;20033;-65
2021/12/05 16:08:57;;;;;;;8.45;3.30;;;;;;;5.45;78.52;100187.53;5036210;28;20055;-65
2021/12/05 16:11:24;;;;;;;9.35;2.95;;;;;;;5.46;78.17;100185.75;5036353;28;20114;-65
2021/12/05 16:13:53;;;;;;;9.65;3.40;;;;;;;5.57;77.74;100180.38;5016313;28;20056;-65
2021/12/05 16:16:24;;;;;;;13.57;3.45;;;;;;;5.55;78.05;100192.84;5016278;28;20041;-65
2021/12/05 16:18:54;;;;;;;7.47;3.40;;;;;;;5.71;76.29;100190.50;5005886;28;20050;-66
2021/12/05 16:21:27;;;;;;;10.20;3.10;;;;;;;5.62;77.37;100190.47;4997005;28;20050;-66
2021/12/05 16:23:56;;;;;;;10.90;3.67;;;;;;;5.65;77.10;100192.84;5018785;28;20080;-66
2021/12/05 16:26:26;;;;;;;13.05;3.70;;;;;;;5.66;77.11;100197.97;5033719;28;20040;-66
2021/12/05 16:28:56;;;;;;;14.68;3.53;;;;;;;5.68;77.83;100195.22;5016030;28;20060;-67
2021/12/05 16:31:30;;;;;;;9.02;3.38;;;;;;;5.69;77.85;100205.56;5033649;28;20038;-66
2021/12/05 16:34:02;;;;;;;11.30;3.90;;;;;;;5.65;79.16;100204.19;5032066;28;20042;-65
2021/12/05 16:36:33;;;;;;;11.07;4.13;;;;;;;5.60;79.43;100216.91;5032084;28;20064;-64
2021/12/05 16:39:15;;;;;;;9.75;3.90;;;;;;;5.57;78.77;100222.47;5053797;28;20041;-65
2021/12/05 16:41:47;;;;;;;10.50;4.20;;;;;;;5.53;78.98;100227.16;5024176;28;20049;-65
2021/12/05 16:44:19;;;;;;;10.60;3.95;;;;;;;5.57;79.65;100240.88;4996590;28;20144;-65
2021/12/05 16:49:34;;;;;;;12.63;4.43;;;;;;;5.61;78.84;100231.75;5110674;27;20711;-67
2021/12/05 16:52:04;;;;;;;10.70;4.00;;;;;;;5.62;78.31;100232.56;5076155;28;20075;-66
2021/12/05 16:54:36;;;;;;;12.00;4.30;;;;;;;5.66;76.96;100245.34;5110437;28;20051;-65
2021/12/05 16:57:23;;;;;;;11.52;4.60;;;;;;;5.68;77.60;100253.09;5108927;28;20109;-65
2021/12/05 16:59:54;;;;;;;31.83;11.38;;;;;;;5.68;77.47;100255.75;5109395;28;20044;-66
2021/12/05 17:02:27;;;;;;;15.82;5.75;;;;;;;5.72;76.70;100265.03;5110418;28;20113;-66
2021/12/05 17:16:03;;;;;;;13.68;3.67;;;;;;;5.61;76.92;100291.44;5090091;28;20380;-66
2021/12/05 17:18:37;;;;;;;11.15;4.20;;;;;;;5.69;77.20;100297.69;5072310;28;20550;-66
2021/12/05 17:21:13;;;;;;;12.07;4.13;;;;;;;5.64;77.33;100293.78;5089985;28;20036;-65
2021/12/05 17:24:05;;;;;;;14.18;3.70;;;;;;;5.62;78.66;100299.22;5072082;28;20060;-65
2021/12/05 17:26:36;;;;;;;12.70;4.80;;;;;;;5.54;78.59;100302.50;5049443;28;20058;-66
2021/12/05 17:29:19;;;;;;;11.07;3.83;;;;;;;5.58;79.15;100301.28;5089868;28;20048;-66
2021/12/05 17:31:50;;;;;;;11.07;3.83;;;;;;;5.55;78.38;100298.06;5090513;28;20292;-66
2021/12/05 17:34:24;;;;;;;12.88;4.60;;;;;;;5.55;79.31;100301.53;5053698;28;20032;-66
2021/12/05 17:36:54;;;;;;;11.48;3.70;;;;;;;5.55;79.42;100301.53;5071832;28;20056;-66
2021/12/05 17:39:26;;;;;;;13.05;3.70;;;;;;;5.53;79.85;100298.22;5055359;28;20052;-67
2021/12/05 17:41:57;;;;;;;9.82;3.35;;;;;;;5.54;79.22;100309.56;5052124;28;20510;-68
2021/12/05 17:44:25;;;;;;;11.07;3.88;;;;;;;5.55;78.37;100309.44;4977803;28;20051;-65
2021/12/05 17:46:55;;;;;;;11.02;3.55;;;;;;;5.49;79.11;100317.81;5052973;28;20497;-65
2021/12/05 17:49:25;;;;;;;12.35;3.20;;;;;;;5.58;78.25;100327.59;5071500;28;20512;-65
2021/12/05 17:51:52;;;;;;;9.02;3.38;;;;;;;5.46;78.86;100335.72;5089577;28;20062;-66